Time;durP1;ratioP1;P1;durP2;ratioP2;P2;SDS_P1;SDS_P2;PMS_P1;PMS_P2;Temp;Humidity;BMP_temperature;BMP_pressure;BME280_temperature;BME280_humidity;BME280_pressure;Samples;Min_cycle;Max_cycle;Signal;HPM_P1;HPM_P2
2022/07/29 00:00:11;;;;;;;10.25;8.85;;;;;;;19.74;75.56;93664.69;5099234;28;20077;-48
2022/07/29 00:02:36;;;;;;;13.43;9.70;;;;;;;19.42;76.02;93646.56;5096527;28;20020;-58
2022/07/29 00:05:03;;;;;;;9.77;8.10;;;;;;;19.65;76.39;93666.25;5104619;28;20015;-44
2022/07/29 00:07:28;;;;;;;12.55;9.35;;;;;;;19.55;76.13;93663.56;5110265;28;20027;-45
2022/07/29 00:09:54;;;;;;;11.13;9.70;;;;;;;19.53;76.21;93663.41;5110405;28;20028;-43
2022/07/29 00:12:20;;;;;;;10.55;9.45;;;;;;;19.65;76.26;93674.66;5112276;28;20086;-43
2022/07/29 00:14:46;;;;;;;11.38;10.23;;;;;;;19.46;76.55;93663.63;5114181;28;20023;-48
2022/07/29 00:17:11;;;;;;;10.23;9.20;;;;;;;19.30;76.76;93662.53;5114439;28;20407;-49
2022/07/29 00:19:37;;;;;;;13.27;10.07;;;;;;;19.34;76.33;93649.56;5113914;28;20031;-48
2022/07/29 00:22:02;;;;;;;11.25;10.05;;;;;;;19.18;77.35;93654.09;5114132;28;20066;-52
2022/07/29 00:24:27;;;;;;;10.57;8.27;;;;;;;19.16;77.31;93651.16;5114111;28;20026;-52
2022/07/29 00:26:53;;;;;;;10.45;9.35;;;;;;;19.29;77.45;93649.88;5113989;28;20019;-46
2022/07/29 00:29:18;;;;;;;13.02;9.60;;;;;;;19.40;76.90;93658.38;5114157;27;20019;-47
2022/07/29 00:31:44;;;;;;;10.85;9.05;;;;;;;19.51;75.04;93651.34;5113698;28;20512;-47
2022/07/29 00:35:43;;;;;;;11.90;8.57;;;;;;;19.47;74.83;93653.88;5113853;27;20024;-47
2022/07/29 00:36:55;;;;;;;16.75;9.15;;;;;;;19.21;75.73;93647.28;5093194;28;20047;-47
2022/07/29 00:39:20;;;;;;;13.45;10.13;;;;;;;19.30;76.13;93651.34;5101319;28;20480;-48
2022/07/29 00:41:46;;;;;;;11.00;9.85;;;;;;;19.23;76.45;93652.31;5113961;28;20523;-49
2022/07/29 00:44:11;;;;;;;12.05;9.73;;;;;;;19.28;77.00;93649.16;5113641;28;20456;-49
2022/07/29 00:46:37;;;;;;;15.98;14.35;;;;;;;19.34;76.39;93655.16;5113734;28;20043;-49
2022/07/29 00:49:02;;;;;;;13.40;10.23;;;;;;;19.33;76.36;93661.34;5113547;28;20024;-50
2022/07/29 00:51:28;;;;;;;12.10;8.70;;;;;;;19.23;76.15;93657.91;5112257;28;20027;-46
2022/07/29 00:53:54;;;;;;;20.90;19.10;;;;;;;19.09;76.48;93660.50;5112229;28;20042;-47
2022/07/29 00:56:19;;;;;;;11.77;10.57;;;;;;;19.13;75.20;93660.75;5113659;28;20028;-46
2022/07/29 00:58:46;;;;;;;12.95;9.18;;;;;;;19.13;75.41;93657.22;5107963;28;20030;-46
2022/07/29 01:01:12;;;;;;;19.17;17.45;;;;;;;19.08;75.01;93663.91;5102643;28;20023;-47
2022/07/29 01:03:38;;;;;;;17.23;15.95;;;;;;;18.97;75.65;93654.09;5092928;28;20119;-48
2022/07/29 01:06:03;;;;;;;14.90;12.52;;;;;;;18.76;76.45;93656.88;5092736;28;20413;-46
2022/07/29 01:08:30;;;;;;;15.10;9.32;;;;;;;18.64;77.24;93662.41;5092569;28;20028;-46
2022/07/29 01:10:55;;;;;;;18.95;17.35;;;;;;;18.88;76.15;93657.69;5092941;28;20032;-47
2022/07/29 01:13:21;;;;;;;10.15;8.80;;;;;;;18.96;75.40;93663.09;5091352;28;20026;-47
2022/07/29 01:15:51;;;;;;;11.90;8.40;;;;;;;18.40;75.24;93595.69;5092426;28;20028;-46
2022/07/29 01:18:22;;;;;;;9.38;8.32;;;;;;;18.88;75.45;93657.69;5091553;28;20043;-47
2022/07/29 01:21:09;;;;;;;9.68;8.13;;;;;;;18.82;75.45;93655.22;5092750;28;20024;-47
2022/07/29 01:23:45;;;;;;;12.18;8.80;;;;;;;18.78;74.90;93654.22;5092227;28;20093;-49
2022/07/29 01:26:32;;;;;;;11.27;8.68;;;;;;;18.63;75.48;93651.78;5100631;28;20027;-49
2022/07/29 01:29:17;;;;;;;9.20;8.30;;;;;;;18.54;76.18;93647.72;5098953;28;20036;-45
2022/07/29 01:31:51;;;;;;;9.10;7.75;;;;;;;18.68;75.23;93645.16;5092482;28;20119;-45
2022/07/29 01:34:23;;;;;;;9.05;7.03;;;;;;;18.64;74.88;93640.03;5091189;28;20044;-44
2022/07/29 01:36:59;;;;;;;9.95;8.02;;;;;;;18.56;75.00;93638.75;5110363;28;20485;-44
2022/07/29 01:39:31;;;;;;;9.20;6.78;;;;;;;18.47;74.37;93637.47;5100361;28;20100;-44
2022/07/29 01:42:05;;;;;;;11.85;8.60;;;;;;;18.50;75.49;93649.50;5111258;28;20019;-44
2022/07/29 01:44:34;;;;;;;10.25;8.32;;;;;;;18.51;74.63;93643.34;5111324;28;20551;-47
2022/07/29 01:47:07;;;;;;;13.40;8.93;;;;;;;18.34;75.12;93643.53;5111314;28;20038;-46
2022/07/29 01:49:36;;;;;;;15.63;14.02;;;;;;;18.39;74.65;93647.31;5110880;28;20035;-47
2022/07/29 01:52:08;;;;;;;12.07;9.48;;;;;;;18.28;75.33;93643.09;5110833;28;20034;-48
2022/07/29 01:54:45;;;;;;;13.10;8.93;;;;;;;18.16;75.77;93648.59;5111411;28;20023;-47
2022/07/29 01:57:17;;;;;;;14.65;8.82;;;;;;;18.13;75.94;93644.19;5110165;28;20020;-48
2022/07/29 01:59:43;;;;;;;11.35;9.15;;;;;;;18.03;76.08;93642.75;5090833;28;20425;-46
2022/07/29 02:02:11;;;;;;;13.18;10.57;;;;;;;18.05;75.88;93640.84;5091087;28;20031;-45
2022/07/29 02:04:37;;;;;;;12.88;11.05;;;;;;;18.12;75.67;93642.75;5090482;28;20032;-47
2022/07/29 02:07:05;;;;;;;15.55;11.38;;;;;;;18.03;77.08;93639.97;5091897;28;20028;-46
2022/07/29 02:09:32;;;;;;;12.40;10.70;;;;;;;18.06;77.09;93642.31;5090381;28;20027;-47
2022/07/29 02:11:59;;;;;;;13.38;10.70;;;;;;;17.91;77.58;93628.69;5090328;28;20030;-46
2022/07/29 02:14:26;;;;;;;12.80;10.20;;;;;;;17.86;78.47;93637.38;5090535;28;20411;-46
2022/07/29 02:16:53;;;;;;;13.32;9.85;;;;;;;18.06;77.62;93636.72;5091531;28;20081;-50
2022/07/29 02:19:22;;;;;;;11.48;9.60;;;;;;;18.06;78.36;93633.22;5091389;28;20509;-46
2022/07/29 02:21:48;;;;;;;12.77;11.18;;;;;;;18.00;78.70;93627.91;5091307;28;20054;-48
2022/07/29 02:24:14;;;;;;;14.85;11.25;;;;;;;18.04;78.74;93636.56;5090448;28;20462;-47
2022/07/29 02:26:41;;;;;;;13.88;10.73;;;;;;;18.05;78.57;93637.31;5090100;28;20032;-49
2022/07/29 02:29:08;;;;;;;13.00;9.82;;;;;;;18.17;77.26;93641.69;5090259;28;20079;-46
2022/07/29 02:31:35;;;;;;;10.43;9.02;;;;;;;17.96;78.18;93633.22;5090225;28;20118;-45
2022/07/29 02:34:03;;;;;;;14.15;10.02;;;;;;;18.02;77.79;93638.50;5089875;28;20051;-50
2022/07/29 02:36:29;;;;;;;10.98;9.13;;;;;;;18.09;76.27;93638.34;5106461;28;20394;-51
2022/07/29 02:38:57;;;;;;;14.15;10.20;;;;;;;18.00;76.68;93636.28;5105781;28;20497;-48
2022/07/29 02:41:52;;;;;;;14.23;10.07;;;;;;;18.04;76.79;93636.56;5090784;28;20047;-47
2022/07/29 02:44:19;;;;;;;14.43;10.52;;;;;;;17.84;78.34;93637.97;5082878;28;20497;-48
2022/07/29 02:47:11;;;;;;;17.10;11.65;;;;;;;17.69;79.33;93634.78;5090080;28;20036;-48
2022/07/29 02:49:39;;;;;;;23.10;12.65;;;;;;;17.71;79.44;93623.75;5089530;28;20528;-48
2022/07/29 02:52:54;;;;;;;18.13;11.68;;;;;;;17.77;78.68;93632.56;5089962;28;20060;-47
2022/07/29 02:55:29;;;;;;;19.85;11.70;;;;;;;17.74;79.08;93628.88;5093647;28;20434;-48
2022/07/29 02:58:00;;;;;;;16.05;12.88;;;;;;;17.92;78.14;93635.00;5111124;28;20473;-49
2022/07/29 03:00:31;;;;;;;18.35;11.65;;;;;;;18.08;77.65;93631.25;5110391;28;20023;-48
2022/07/29 03:02:59;;;;;;;14.75;11.43;;;;;;;18.02;77.78;93633.66;5110549;28;20027;-47
2022/07/29 03:05:25;;;;;;;10.52;8.38;;;;;;;17.91;75.94;93636.34;5111008;28;20045;-48
2022/07/29 03:08:04;;;;;;;9.30;7.78;;;;;;;17.76;76.14;93637.41;5106506;28;20031;-47
2022/07/29 03:10:30;;;;;;;10.15;8.35;;;;;;;17.71;75.47;93630.06;5110031;28;20462;-51
2022/07/29 03:12:57;;;;;;;14.00;9.23;;;;;;;17.51;75.63;93617.47;5109635;28;20557;-51
2022/07/29 03:15:22;;;;;;;11.40;9.30;;;;;;;17.59;75.92;93628.47;5109960;28;20030;-49
2022/07/29 03:17:49;;;;;;;12.00;8.70;;;;;;;17.57;76.33;93625.53;5110983;28;20386;-49
2022/07/29 03:20:15;;;;;;;11.20;8.18;;;;;;;17.57;76.12;93628.31;5110654;28;20480;-51
2022/07/29 03:22:46;;;;;;;10.52;7.75;;;;;;;17.55;76.29;93634.50;5111058;28;20023;-50
2022/07/29 03:25:16;;;;;;;11.50;8.65;;;;;;;17.32;77.14;93603.53;5111060;28;20027;-47
2022/07/29 03:27:43;;;;;;;14.48;10.48;;;;;;;17.27;78.41;93626.88;5110612;28;20027;-45
2022/07/29 03:30:09;;;;;;;18.65;10.02;;;;;;;17.29;78.45;93636.13;5110590;28;20035;-46
2022/07/29 03:32:35;;;;;;;12.55;9.60;;;;;;;17.28;78.91;93631.13;5109263;28;20031;-49
2022/07/29 03:35:01;;;;;;;10.68;8.77;;;;;;;17.22;80.01;93631.41;5106189;28;20039;-47
2022/07/29 03:37:26;;;;;;;18.58;14.05;;;;;;;17.26;79.54;93634.50;5094159;28;20486;-49
2022/07/29 03:39:55;;;;;;;19.40;13.73;;;;;;;17.37;78.79;93638.75;5110493;28;20047;-50
2022/07/29 03:42:27;;;;;;;15.80;13.82;;;;;;;17.52;77.45;93632.16;5109396;28;20034;-48
2022/07/29 03:44:53;;;;;;;19.90;14.48;;;;;;;17.47;77.67;93630.38;5109543;28;20084;-49
2022/07/29 03:47:22;;;;;;;18.35;13.77;;;;;;;17.50;77.82;93627.16;5113128;28;20114;-48
2022/07/29 03:49:50;;;;;;;15.45;13.02;;;;;;;17.42;78.31;93623.78;5113353;28;20465;-48
2022/07/29 03:52:16;;;;;;;18.27;12.48;;;;;;;17.56;77.94;93624.81;5113741;28;20164;-49
2022/07/29 03:54:42;;;;;;;15.85;13.45;;;;;;;17.70;77.08;93625.81;5113741;28;20063;-49
2022/07/29 03:57:08;;;;;;;16.30;11.57;;;;;;;17.77;76.58;93616.53;5114792;28;20066;-49
2022/07/29 03:59:34;;;;;;;14.75;10.13;;;;;;;17.82;77.06;93617.56;5113589;28;20027;-50
2022/07/29 04:02:02;;;;;;;14.75;10.95;;;;;;;17.84;77.22;93615.63;5113553;28;20050;-45
2022/07/29 04:04:27;;;;;;;13.48;11.50;;;;;;;17.84;77.39;93612.84;5097177;28;20050;-47
2022/07/29 04:06:53;;;;;;;15.57;11.48;;;;;;;17.91;77.84;93611.91;5097258;28;20024;-46
2022/07/29 04:09:18;;;;;;;13.73;11.75;;;;;;;17.85;77.26;93617.09;5094113;28;20408;-47
2022/07/29 04:11:45;;;;;;;14.57;11.90;;;;;;;17.80;77.07;93617.41;5092937;28;20052;-45
2022/07/29 04:14:10;;;;;;;12.93;11.15;;;;;;;17.87;76.98;93622.06;5092571;28;20485;-47
2022/07/29 04:16:36;;;;;;;13.57;11.70;;;;;;;17.78;77.44;93611.69;5093711;28;20024;-45
2022/07/29 04:19:02;;;;;;;12.73;10.85;;;;;;;17.90;77.21;93621.63;5093778;28;20063;-46
2022/07/29 04:21:27;;;;;;;14.77;11.25;;;;;;;17.82;77.61;93615.47;5112638;28;20043;-46
2022/07/29 04:23:53;;;;;;;12.73;10.85;;;;;;;17.81;78.00;93621.66;5114292;28;20096;-44
2022/07/29 04:26:19;;;;;;;12.25;10.43;;;;;;;17.95;76.40;93626.16;5113857;28;20042;-45
2022/07/29 04:28:45;;;;;;;11.02;9.35;;;;;;;17.86;76.41;93618.56;5114264;28;20035;-45
2022/07/29 04:31:12;;;;;;;14.77;11.82;;;;;;;17.85;76.06;93628.25;5114073;28;20450;-45
2022/07/29 04:33:37;;;;;;;14.68;12.05;;;;;;;17.69;77.09;93629.19;5113750;27;20032;-45
2022/07/29 04:36:03;;;;;;;17.50;14.48;;;;;;;17.77;76.76;93626.97;5113820;28;20027;-47
2022/07/29 04:38:29;;;;;;;17.50;12.88;;;;;;;17.67;78.08;93631.84;5111724;27;20070;-47
2022/07/29 04:40:54;;;;;;;15.73;12.82;;;;;;;17.39;79.67;93608.94;5093215;28;20075;-48
2022/07/29 04:56:18;;;;;;;10.02;9.00;;;;;;;18.70;76.64;93653.66;5087431;27;20624;-49
2022/07/29 04:58:44;;;;;;;14.55;9.20;;;;;;;18.66;77.46;93659.00;5086925;28;20487;-48
2022/07/29 05:01:09;;;;;;;10.27;8.20;;;;;;;18.57;78.18;93652.13;5087333;28;20024;-47
2022/07/29 05:03:35;;;;;;;10.25;8.90;;;;;;;18.62;78.57;93659.47;5086895;28;20012;-47
2022/07/29 05:06:00;;;;;;;11.90;8.98;;;;;;;18.70;78.98;93662.06;5087207;28;20130;-47
2022/07/29 05:08:25;;;;;;;12.68;9.77;;;;;;;18.70;78.94;93659.25;5087290;28;20028;-48
2022/07/29 05:10:51;;;;;;;10.15;9.15;;;;;;;18.86;78.50;93654.75;5087096;28;20020;-52
2022/07/29 05:13:16;;;;;;;10.85;9.07;;;;;;;18.95;78.21;93658.84;5087477;28;20020;-47
2022/07/29 05:15:42;;;;;;;10.25;9.13;;;;;;;19.05;77.83;93653.91;5081300;28;20028;-45
2022/07/29 05:18:07;;;;;;;9.50;8.40;;;;;;;19.18;77.17;93651.31;5078986;28;20031;-45
2022/07/29 05:20:34;;;;;;;15.93;9.55;;;;;;;19.22;77.94;93654.34;5086020;28;20031;-47
2022/07/29 05:23:00;;;;;;;11.45;8.75;;;;;;;19.33;78.00;93662.09;5086720;28;20024;-46
2022/07/29 05:25:26;;;;;;;12.10;9.38;;;;;;;19.38;77.15;93652.63;5087286;28;20055;-50
2022/07/29 05:27:54;;;;;;;10.70;8.32;;;;;;;19.35;76.84;93642.66;5086956;28;20028;-48
2022/07/29 05:30:19;;;;;;;10.45;9.35;;;;;;;19.55;76.68;93655.16;5087175;28;20024;-46
2022/07/29 05:32:45;;;;;;;13.68;11.88;;;;;;;19.65;76.65;93658.59;5086630;28;20484;-52
2022/07/29 05:35:11;;;;;;;13.02;10.35;;;;;;;19.64;76.89;93656.41;5080709;28;20090;-55
2022/07/29 05:37:37;;;;;;;10.55;9.43;;;;;;;19.67;76.64;93661.50;5086507;28;20048;-53
2022/07/29 05:40:03;;;;;;;13.07;9.27;;;;;;;19.78;76.91;93660.09;5086940;28;20028;-49
2022/07/29 05:42:29;;;;;;;11.07;8.80;;;;;;;19.88;76.90;93668.41;5080404;28;20059;-49
2022/07/29 05:44:54;;;;;;;15.65;9.23;;;;;;;19.98;76.77;93666.22;5077635;28;20485;-47
2022/07/29 05:47:20;;;;;;;12.35;9.50;;;;;;;20.02;77.05;93672.09;5086808;28;20103;-46
2022/07/29 05:49:45;;;;;;;13.25;11.43;;;;;;;20.06;76.30;93672.34;5086451;28;20021;-47
2022/07/29 05:52:12;;;;;;;15.68;13.07;;;;;;;19.98;77.08;93672.56;5078928;28;20032;-46
2022/07/29 05:54:38;;;;;;;17.58;11.70;;;;;;;20.01;76.89;93674.16;5082167;28;20093;-46
2022/07/29 05:57:05;;;;;;;15.43;11.10;;;;;;;20.03;76.25;93667.97;5069499;28;20032;-48
2022/07/29 05:59:31;;;;;;;16.30;12.52;;;;;;;19.94;75.15;93680.00;5047440;28;20028;-45
2022/07/29 06:01:57;;;;;;;18.20;11.95;;;;;;;19.88;75.27;93680.31;5068109;28;20466;-48
2022/07/29 06:04:22;;;;;;;15.88;12.13;;;;;;;19.91;76.01;93676.31;5070910;28;20497;-46
2022/07/29 06:06:48;;;;;;;12.18;10.68;;;;;;;19.82;76.49;93662.41;5071534;28;20109;-46
2022/07/29 06:09:13;;;;;;;15.55;11.57;;;;;;;19.90;77.21;93660.13;5072037;28;20024;-46
2022/07/29 06:11:40;;;;;;;13.98;12.00;;;;;;;20.08;77.88;93681.59;5071314;28;20032;-46
2022/07/29 06:14:05;;;;;;;15.85;12.93;;;;;;;20.14;77.72;93684.78;5053534;28;20024;-50
2022/07/29 06:16:31;;;;;;;15.25;12.52;;;;;;;20.20;76.96;93676.03;5071308;28;20027;-50
2022/07/29 06:18:56;;;;;;;15.02;12.13;;;;;;;20.34;76.46;93688.13;5071583;28;20055;-48
2022/07/29 06:21:22;;;;;;;16.38;13.45;;;;;;;20.47;74.57;93684.00;5071645;28;20024;-48
2022/07/29 06:23:47;;;;;;;12.05;10.85;;;;;;;20.54;74.10;93680.22;5071097;28;20071;-48
2022/07/29 06:26:13;;;;;;;11.63;10.20;;;;;;;20.61;73.88;93685.63;5070484;28;20028;-47
2022/07/29 06:28:38;;;;;;;11.52;9.82;;;;;;;20.71;70.66;93680.59;5068820;28;20025;-47
2022/07/29 06:31:05;;;;;;;11.88;10.00;;;;;;;20.58;70.56;93658.03;5069391;28;20089;-45
2022/07/29 06:33:30;;;;;;;7.20;6.50;;;;;;;20.73;69.05;93682.78;5071120;28;20017;-44
2022/07/29 06:35:56;;;;;;;10.32;6.65;;;;;;;20.86;69.38;93682.91;5064262;28;20063;-48
2022/07/29 06:38:22;;;;;;;7.22;6.40;;;;;;;21.05;68.23;93677.06;5065530;28;20028;-47
2022/07/29 06:40:59;;;;;;;7.03;5.68;;;;;;;21.07;66.77;93679.28;5070742;28;20038;-50
2022/07/29 06:43:33;;;;;;;6.43;5.70;;;;;;;21.16;67.48;93675.56;5069688;28;20074;-50
2022/07/29 06:46:01;;;;;;;8.50;5.25;;;;;;;21.30;66.35;93678.47;5053841;28;20167;-47
2022/07/29 06:48:27;;;;;;;4.72;4.22;;;;;;;21.36;65.20;93671.13;5067838;28;20028;-46
2022/07/29 06:50:53;;;;;;;8.75;5.00;;;;;;;21.51;64.39;93661.44;5071369;28;20035;-44
2022/07/29 06:53:19;;;;;;;4.97;3.78;;;;;;;21.60;64.80;93661.28;5071728;28;20017;-46
2022/07/29 06:55:44;;;;;;;3.30;3.00;;;;;;;21.71;59.64;93660.50;5070866;28;20055;-45
2022/07/29 06:58:10;;;;;;;3.70;2.80;;;;;;;21.86;59.94;93668.41;5068785;28;20028;-44
2022/07/29 07:00:36;;;;;;;3.30;3.00;;;;;;;21.85;58.86;93661.31;5062977;28;20033;-46
2022/07/29 07:03:01;;;;;;;4.55;3.35;;;;;;;21.99;60.63;93660.63;5070290;28;20035;-47
2022/07/29 07:05:27;;;;;;;4.00;2.78;;;;;;;22.20;59.26;93655.50;5058088;28;20041;-50
2022/07/29 07:07:52;;;;;;;6.53;4.72;;;;;;;22.26;58.11;93666.38;5069082;28;20111;-47
2022/07/29 07:10:18;;;;;;;4.28;3.65;;;;;;;22.36;56.64;93659.19;5069367;28;20476;-46
2022/07/29 07:12:43;;;;;;;3.97;3.58;;;;;;;22.44;56.23;93654.00;5067230;28;20032;-49
2022/07/29 07:15:09;;;;;;;4.72;3.78;;;;;;;22.46;56.28;93662.53;5069696;28;20405;-48
2022/07/29 07:17:35;;;;;;;3.05;2.70;;;;;;;22.44;56.63;93659.63;5067663;28;20024;-50
2022/07/29 07:20:00;;;;;;;4.03;3.63;;;;;;;22.49;57.19;93658.50;5069366;28;20042;-45
2022/07/29 07:22:25;;;;;;;6.03;3.30;;;;;;;22.74;56.34;93662.63;5069521;28;20424;-43
2022/07/29 07:24:51;;;;;;;4.72;3.40;;;;;;;22.84;54.96;93660.31;5064335;28;20552;-46
2022/07/29 07:27:16;;;;;;;4.63;3.47;;;;;;;22.87;55.95;93664.72;5060110;28;20028;-44
2022/07/29 07:29:42;;;;;;;3.05;2.80;;;;;;;23.14;54.37;93659.78;5068357;28;20052;-44
2022/07/29 07:32:07;;;;;;;3.13;2.83;;;;;;;23.41;54.61;93661.16;5068909;28;20137;-44
2022/07/29 07:34:33;;;;;;;4.20;3.17;;;;;;;23.50;54.18;93654.56;5064953;28;20697;-46
2022/07/29 07:36:59;;;;;;;5.20;2.80;;;;;;;24.27;51.06;93667.47;5066789;28;20088;-43
2022/07/29 07:39:25;;;;;;;5.40;2.78;;;;;;;24.67;51.37;93666.47;5066848;28;20032;-45
2022/07/29 07:41:51;;;;;;;6.25;2.80;;;;;;;25.40;48.37;93665.50;5068086;28;20023;-45
2022/07/29 07:44:17;;;;;;;3.15;2.90;;;;;;;25.91;46.36;93661.97;5065888;28;20093;-45
2022/07/29 07:46:42;;;;;;;4.53;2.45;;;;;;;26.76;47.04;93660.41;5067242;28;20025;-45
2022/07/29 07:49:07;;;;;;;3.80;2.33;;;;;;;27.13;44.17;93654.69;5067772;28;20024;-45
2022/07/29 07:51:33;;;;;;;4.93;2.78;;;;;;;27.63;44.13;93655.75;5067652;28;20043;-47
2022/07/29 07:54:00;;;;;;;3.10;2.45;;;;;;;28.00;41.52;93658.44;5064726;28;20025;-48
2022/07/29 07:56:26;;;;;;;3.53;2.65;;;;;;;28.45;40.90;93657.72;5066286;28;20008;-49
2022/07/29 07:58:51;;;;;;;3.90;2.30;;;;;;;28.63;38.95;93666.09;5066572;28;20021;-48
2022/07/29 08:01:18;;;;;;;3.03;2.50;;;;;;;29.28;37.91;93657.34;5059642;28;20675;-47
2022/07/29 08:03:44;;;;;;;3.47;3.13;;;;;;;29.33;38.49;93656.78;5059410;28;20029;-51
2022/07/29 08:06:09;;;;;;;4.80;3.88;;;;;;;29.24;37.88;93660.78;5066136;28;20074;-46
2022/07/29 08:08:35;;;;;;;2.50;2.30;;;;;;;30.09;35.55;93663.06;5062311;28;20044;-50
2022/07/29 08:11:01;;;;;;;5.22;3.60;;;;;;;30.00;36.24;93653.59;5062065;28;20028;-51
2022/07/29 08:13:28;;;;;;;4.32;2.60;;;;;;;30.11;36.87;93671.63;5065139;28;20024;-46
2022/07/29 08:16:01;;;;;;;3.03;2.83;;;;;;;30.14;36.63;93664.59;5064202;28;20029;-48
2022/07/29 08:18:28;;;;;;;3.35;3.10;;;;;;;29.86;37.24;93662.50;5064683;28;20429;-49
2022/07/29 08:20:54;;;;;;;3.15;2.85;;;;;;;30.92;35.66;93655.06;5066692;28;20029;-47
2022/07/29 08:23:20;;;;;;;4.75;2.75;;;;;;;32.07;32.85;93655.22;5062660;28;20033;-47
2022/07/29 08:25:45;;;;;;;5.03;2.85;;;;;;;32.43;32.64;93655.06;5065629;28;20027;-51
2022/07/29 08:28:11;;;;;;;4.15;2.60;;;;;;;32.92;32.92;93652.94;5067666;28;20060;-49
2022/07/29 08:30:36;;;;;;;3.85;2.47;;;;;;;32.58;31.18;93653.16;5066052;28;20024;-53
2022/07/29 08:33:02;;;;;;;6.78;2.60;;;;;;;32.65;31.56;93657.56;5062202;28;20075;-44
2022/07/29 08:35:27;;;;;;;5.95;2.95;;;;;;;32.74;31.32;93636.97;5067560;28;20055;-49
2022/07/29 08:37:54;;;;;;;4.22;3.05;;;;;;;32.94;30.96;93650.84;5067240;28;20107;-49
2022/07/29 08:40:23;;;;;;;5.07;2.67;;;;;;;32.88;31.18;93654.31;5065456;28;20028;-49
2022/07/29 08:42:49;;;;;;;3.60;2.80;;;;;;;33.11;30.48;93651.78;5067348;28;20024;-49
2022/07/29 08:45:15;;;;;;;5.85;2.40;;;;;;;33.46;30.18;93645.78;5067120;28;20024;-49
2022/07/29 08:47:41;;;;;;;2.63;2.40;;;;;;;33.85;29.65;93649.78;5066033;28;20059;-47
2022/07/29 08:50:08;;;;;;;3.88;3.13;;;;;;;33.48;29.50;93650.81;5066357;28;20021;-47
2022/07/29 08:52:37;;;;;;;2.72;2.53;;;;;;;32.84;31.11;93648.56;5068543;28;20025;-57
2022/07/29 08:55:05;;;;;;;5.28;3.72;;;;;;;33.22;30.27;93654.09;5067349;28;20072;-47
2022/07/29 08:57:30;;;;;;;2.95;2.67;;;;;;;33.02;31.36;93633.06;5049382;28;20115;-49
2022/07/29 08:59:57;;;;;;;6.68;2.90;;;;;;;33.33;30.79;93647.06;5064171;28;20024;-52
2022/07/29 09:02:24;;;;;;;5.93;3.10;;;;;;;33.09;29.73;93648.91;5040078;28;20028;-47
2022/07/29 09:04:50;;;;;;;2.35;2.22;;;;;;;33.27;30.28;93641.25;5046401;28;20036;-44
2022/07/29 09:07:17;;;;;;;2.70;2.40;;;;;;;33.51;30.15;93641.56;5063663;28;20468;-46
2022/07/29 09:09:43;;;;;;;3.22;2.97;;;;;;;33.18;30.54;93639.72;5065283;28;20071;-50
2022/07/29 09:12:11;;;;;;;3.67;3.35;;;;;;;33.31;29.61;93637.75;5064601;28;20029;-50
2022/07/29 09:14:37;;;;;;;2.80;2.60;;;;;;;33.54;29.03;93633.72;5061625;28;20035;-47
2022/07/29 09:17:03;;;;;;;5.25;2.65;;;;;;;34.41;29.30;93640.28;5065075;28;20025;-49
2022/07/29 09:19:35;;;;;;;4.40;2.65;;;;;;;34.93;27.91;93621.28;5069934;28;20036;-48
2022/07/29 09:22:04;;;;;;;3.15;2.90;;;;;;;35.22;26.33;93639.41;5063683;28;20029;-48
2022/07/29 09:24:38;;;;;;;3.10;2.70;;;;;;;35.21;26.35;93640.84;5050394;28;20679;-51
2022/07/29 09:27:28;;;;;;;3.83;2.97;;;;;;;35.22;27.96;93641.56;5057162;28;20498;-49
2022/07/29 09:30:00;;;;;;;3.20;2.80;;;;;;;35.02;25.70;93631.41;5069874;28;20432;-50
2022/07/29 09:32:26;;;;;;;2.42;2.22;;;;;;;34.82;27.97;93631.28;5064369;28;20037;-46
2022/07/29 09:35:19;;;;;;;3.03;2.80;;;;;;;35.12;29.25;93630.75;5057608;28;20077;-46
2022/07/29 09:37:45;;;;;;;3.15;2.72;;;;;;;34.97;28.81;93632.09;5073651;28;20107;-47
2022/07/29 09:40:21;;;;;;;2.58;2.22;;;;;;;35.01;26.04;93635.00;5072952;28;20124;-50
2022/07/29 09:42:47;;;;;;;4.28;2.67;;;;;;;34.45;27.30;93643.19;5068631;28;20517;-51
2022/07/29 09:45:34;;;;;;;2.38;2.17;;;;;;;34.57;26.70;93637.56;5059699;28;20064;-48
2022/07/29 09:48:17;;;;;;;6.55;4.30;;;;;;;34.32;26.20;93634.50;5071021;28;20035;-45
2022/07/29 09:50:43;;;;;;;3.53;2.40;;;;;;;34.61;26.96;93635.44;5070393;28;20029;-44
2022/07/29 09:53:10;;;;;;;4.78;2.78;;;;;;;34.93;27.37;93632.06;5058207;28;20029;-53
2022/07/29 09:55:49;;;;;;;3.90;2.47;;;;;;;35.40;26.55;93624.41;5050169;28;20051;-48
2022/07/29 09:58:17;;;;;;;2.70;2.50;;;;;;;35.18;27.69;93632.94;5049722;28;20116;-44
2022/07/29 10:00:43;;;;;;;2.47;2.22;;;;;;;35.77;27.21;93626.72;5056514;28;20030;-43
2022/07/29 10:03:09;;;;;;;2.47;2.28;;;;;;;35.69;26.47;93620.94;5049138;28;20810;-48
2022/07/29 10:05:34;;;;;;;2.88;2.08;;;;;;;35.60;26.58;93621.63;5065666;28;20120;-46
2022/07/29 10:07:59;;;;;;;12.23;3.17;;;;;;;35.79;26.03;93605.88;5064663;28;20016;-51
2022/07/29 10:10:30;;;;;;;3.08;2.17;;;;;;;35.38;24.85;93612.91;5062396;28;20098;-55
2022/07/29 10:13:01;;;;;;;3.17;2.40;;;;;;;35.61;24.96;93618.03;5063876;28;20037;-49
2022/07/29 10:15:29;;;;;;;2.63;2.42;;;;;;;35.19;24.47;93620.03;5063294;28;20055;-51
2022/07/29 10:17:58;;;;;;;4.97;2.58;;;;;;;35.30;24.10;93618.63;5070555;28;20021;-51
2022/07/29 10:20:24;;;;;;;3.33;2.60;;;;;;;35.20;24.04;93610.69;5070063;28;20035;-61
2022/07/29 10:22:51;;;;;;;2.53;2.33;;;;;;;34.90;23.66;93607.66;5071196;28;20032;-52
2022/07/29 10:25:18;;;;;;;7.40;2.53;;;;;;;34.73;25.20;93606.13;5070957;28;20040;-49
2022/07/29 10:27:47;;;;;;;3.65;2.70;;;;;;;34.72;25.56;93598.94;5071483;28;20072;-50
2022/07/29 10:30:14;;;;;;;5.28;2.28;;;;;;;34.55;24.27;93601.00;5070692;28;20048;-53
2022/07/29 10:33:07;;;;;;;5.07;1.90;;;;;;;35.38;24.93;93596.41;5070446;28;20029;-49
2022/07/29 10:35:54;;;;;;;2.65;2.40;;;;;;;35.71;22.76;93580.72;5050937;28;20075;-55
2022/07/29 10:38:41;;;;;;;2.95;2.67;;;;;;;35.88;24.00;93592.22;5051884;28;20158;-50
2022/07/29 10:41:28;;;;;;;2.38;2.00;;;;;;;36.45;23.34;93582.25;5069227;28;20032;-49
2022/07/29 10:44:00;;;;;;;2.10;2.00;;;;;;;35.41;25.62;93600.72;5062825;28;20025;-46
2022/07/29 10:46:27;;;;;;;2.47;2.28;;;;;;;35.35;23.40;93589.22;5066631;28;20029;-54
2022/07/29 10:49:11;;;;;;;2.72;2.33;;;;;;;35.61;24.30;93586.44;5068934;28;20082;-47
2022/07/29 10:52:00;;;;;;;4.35;2.58;;;;;;;35.91;24.85;93585.75;5067514;28;20115;-51
2022/07/29 10:54:45;;;;;;;2.80;2.53;;;;;;;35.74;22.99;93579.28;5068349;28;20056;-47
2022/07/29 10:57:31;;;;;;;3.45;2.17;;;;;;;36.48;21.89;93566.41;5069190;28;20123;-54
2022/07/29 11:00:08;;;;;;;2.95;2.15;;;;;;;36.30;23.64;93570.00;5067051;28;20028;-49
2022/07/29 11:02:34;;;;;;;4.38;3.00;;;;;;;36.13;23.43;93576.47;5069835;28;20071;-51
2022/07/29 11:05:10;;;;;;;4.47;2.33;;;;;;;35.89;23.67;93574.28;5069619;28;20565;-45
2022/07/29 11:07:37;;;;;;;6.28;3.28;;;;;;;35.63;22.46;93566.34;5067068;28;20063;-49
2022/07/29 11:10:15;;;;;;;5.50;2.88;;;;;;;35.64;23.61;93567.06;5069913;28;20021;-45
2022/07/29 11:12:40;;;;;;;7.93;2.70;;;;;;;35.15;24.45;93557.56;5067193;28;20074;-53
2022/07/29 11:15:17;;;;;;;3.05;2.85;;;;;;;34.91;24.07;93529.47;5069484;28;20028;-54
2022/07/29 11:17:56;;;;;;;3.15;2.55;;;;;;;35.15;23.80;93546.06;5067494;28;20028;-47
2022/07/29 11:20:57;;;;;;;3.17;2.60;;;;;;;35.06;23.71;93553.25;5070217;28;20040;-46
2022/07/29 11:23:29;;;;;;;3.55;2.50;;;;;;;34.81;23.58;93552.38;4955399;28;20129;-54
2022/07/29 11:26:22;;;;;;;3.00;2.78;;;;;;;34.71;24.24;93552.34;5053191;28;20051;-53
2022/07/29 11:28:51;;;;;;;3.25;2.65;;;;;;;34.38;26.08;93556.41;5066523;28;20028;-56
2022/07/29 11:31:16;;;;;;;;;;;;;;;34.12;25.78;93556.22;5070661;28;20131;-58
2022/07/29 11:33:42;;;;;;;3.90;3.60;;;;;;;33.57;25.31;93552.88;5040531;28;20428;-58
2022/07/29 11:36:08;;;;;;;3.65;3.35;;;;;;;33.02;27.74;93550.09;5063370;28;20032;-58
2022/07/29 11:38:33;;;;;;;4.15;3.45;;;;;;;33.11;26.70;93548.78;5069386;28;20032;-42
2022/07/29 11:41:17;;;;;;;3.55;3.25;;;;;;;33.37;26.51;93540.50;5068254;28;20035;-44
2022/07/29 11:44:01;;;;;;;5.13;4.43;;;;;;;33.24;25.97;93524.59;5055216;28;20050;-51
2022/07/29 11:46:50;;;;;;;4.65;2.95;;;;;;;33.22;26.91;93539.63;5076265;28;20537;-42